Terminal Aerodrome Forecast
Issued by NWS

Home | Current Version | Previous Version | Text Only | Print | Product List | Glossary On
Versions: 1 2 3 4 5 6 7 8 9 10 11 12 13 14 15 16 17 18 19 20 21
000
FTUS41 KBTV 261737
TAFMSS
TAF
KMSS 261737Z 2618/2718 07014KT P6SM OVC070
     FM270000 08010KT P6SM OVC035
     FM270300 09009KT 5SM -RA BR OVC030
     FM270800 09009KT 3SM -RA BR OVC020=

USA.gov is the U.S. government's official web portal to all federal, state and local government web resources and services.